createdAt,value
2019-05-15T00:01:44.385Z,12.80
2019-05-15T00:04:14.518Z,12.80
2019-05-15T00:06:44.530Z,12.80
2019-05-15T00:09:15.389Z,12.80
2019-05-15T00:11:45.429Z,12.80
2019-05-15T00:14:18.061Z,12.80
2019-05-15T00:16:48.196Z,12.80
2019-05-15T00:19:18.939Z,12.80
2019-05-15T00:21:49.467Z,12.80
2019-05-15T00:24:19.555Z,12.80
2019-05-15T00:26:49.683Z,12.80
2019-05-15T00:29:20.031Z,12.80
2019-05-15T00:31:51.485Z,12.70
2019-05-15T00:34:21.938Z,12.70
2019-05-15T00:36:51.963Z,12.70
2019-05-15T00:39:22.040Z,12.70
2019-05-15T00:41:54.779Z,12.70
2019-05-15T00:44:23.790Z,12.70
2019-05-15T00:46:54.129Z,12.70
2019-05-15T00:49:24.237Z,12.70
2019-05-15T00:51:54.586Z,12.70
2019-05-15T00:54:24.670Z,12.70
2019-05-15T00:56:54.715Z,12.70
2019-05-15T00:59:29.351Z,12.70
2019-05-15T01:01:56.506Z,12.70
2019-05-15T01:04:28.028Z,12.70
2019-05-15T01:06:58.861Z,12.70
2019-05-15T01:09:29.357Z,12.60
2019-05-15T01:11:59.771Z,12.60
2019-05-15T01:14:29.804Z,12.60
2019-05-15T01:17:01.393Z,12.60
2019-05-15T01:19:31.521Z,12.60
2019-05-15T01:22:01.559Z,12.60
2019-05-15T01:24:31.694Z,12.60
2019-05-15T01:27:02.186Z,12.60
2019-05-15T01:29:43.840Z,12.60
2019-05-15T01:32:04.090Z,12.60
2019-05-15T01:34:34.154Z,12.60
2019-05-15T01:37:04.257Z,12.60
2019-05-15T01:39:34.343Z,12.60
2019-05-15T01:42:04.376Z,12.60
2019-05-15T01:44:34.482Z,12.60
2019-05-15T01:47:04.515Z,12.60
2019-05-15T01:49:34.555Z,12.50
2019-05-15T01:52:04.597Z,12.50
2019-05-15T01:54:35.021Z,12.50
2019-05-15T01:57:05.060Z,12.50
2019-05-15T01:59:35.477Z,12.50
2019-05-15T02:02:05.518Z,12.50
2019-05-15T02:04:35.534Z,12.50
2019-05-15T02:07:08.321Z,12.50
2019-05-15T02:09:38.827Z,12.50
2019-05-15T02:12:08.938Z,12.40
2019-05-15T02:14:39.322Z,12.50
2019-05-15T02:17:10.558Z,12.40
2019-05-15T02:19:40.601Z,12.40
2019-05-15T02:22:10.761Z,12.40
2019-05-15T02:24:40.781Z,12.40
2019-05-15T02:27:11.591Z,12.40
2019-05-15T02:29:41.615Z,12.40
2019-05-15T02:32:11.676Z,12.40
2019-05-15T02:34:41.713Z,12.40
2019-05-15T02:37:11.819Z,12.40
2019-05-15T02:39:41.850Z,12.40
2019-05-15T02:42:12.231Z,12.40
2019-05-15T02:44:42.267Z,12.40
2019-05-15T02:47:12.392Z,12.40
2019-05-15T02:49:42.421Z,12.40
2019-05-15T02:52:12.542Z,12.30
2019-05-15T02:54:42.567Z,12.30
2019-05-15T02:57:12.637Z,12.30
2019-05-15T02:59:42.746Z,12.30
2019-05-15T03:02:13.475Z,12.30
2019-05-15T03:04:43.598Z,12.30
2019-05-15T03:07:14.478Z,12.30
2019-05-15T03:09:44.646Z,12.30
2019-05-15T03:12:14.721Z,12.30
2019-05-15T03:14:45.467Z,12.30
2019-05-15T03:17:18.859Z,12.30
2019-05-15T03:19:49.826Z,12.30
2019-05-15T03:22:19.837Z,12.30
2019-05-15T03:24:50.403Z,12.20
2019-05-15T03:27:21.335Z,12.20
2019-05-15T03:29:51.836Z,12.20
2019-05-15T03:32:33.631Z,12.20
2019-05-15T03:34:56.897Z,12.20
2019-05-15T03:37:32.610Z,12.20
2019-05-15T03:39:59.654Z,12.20
2019-05-15T03:42:29.911Z,12.20
2019-05-15T03:44:59.953Z,12.20
2019-05-15T03:47:30.347Z,12.20
2019-05-15T03:50:00.605Z,12.20
2019-05-15T03:52:30.663Z,12.20
2019-05-15T03:55:00.848Z,12.20
2019-05-15T03:57:30.924Z,12.20
2019-05-15T04:00:01.136Z,12.20
2019-05-15T04:02:31.817Z,12.10
2019-05-15T04:05:02.338Z,12.10
2019-05-15T04:07:32.653Z,12.10
2019-05-15T04:10:03.094Z,12.10
2019-05-15T04:12:33.490Z,12.10
2019-05-15T04:15:03.745Z,12.10
2019-05-15T04:17:33.823Z,12.10
2019-05-15T04:20:03.884Z,12.10
2019-05-15T04:22:34.014Z,12.10
2019-05-15T04:25:05.343Z,12.10
2019-05-15T04:27:38.815Z,12.10
2019-05-15T04:30:10.630Z,12.10
2019-05-15T04:32:40.342Z,12.10
2019-05-15T04:35:11.494Z,12.10
2019-05-15T04:37:41.578Z,12.10
2019-05-15T04:40:11.903Z,12.10
2019-05-15T04:42:41.965Z,12.10
2019-05-15T04:45:12.007Z,12.10
2019-05-15T04:47:42.185Z,12.10
2019-05-15T04:50:12.661Z,12.10
2019-05-15T04:52:43.843Z,12.10
2019-05-15T04:55:13.956Z,12.00
2019-05-15T04:57:44.360Z,12.00
2019-05-15T05:00:19.698Z,12.00
2019-05-15T05:02:49.674Z,12.00
2019-05-15T05:05:20.246Z,12.00
2019-05-15T05:07:50.724Z,12.00
2019-05-15T05:10:20.760Z,12.00
2019-05-15T05:12:51.140Z,12.00
2019-05-15T05:15:21.533Z,12.00
2019-05-15T05:17:51.599Z,12.00
2019-05-15T05:20:21.633Z,12.00
2019-05-15T05:22:51.791Z,12.00
2019-05-15T05:25:21.921Z,12.00
2019-05-15T05:27:52.065Z,12.00
2019-05-15T05:30:22.188Z,12.00
2019-05-15T05:32:52.632Z,12.00
2019-05-15T05:35:22.609Z,12.00
2019-05-15T05:37:52.650Z,12.00
2019-05-15T05:40:22.726Z,12.00
2019-05-15T05:42:52.901Z,12.00
2019-05-15T05:45:22.951Z,12.00
2019-05-15T05:47:53.358Z,12.00
2019-05-15T05:50:44.348Z,12.00
2019-05-15T05:53:14.807Z,12.00
2019-05-15T05:55:45.056Z,12.00
2019-05-15T05:58:15.114Z,12.00
2019-05-15T06:00:48.753Z,12.00
2019-05-15T06:03:19.623Z,12.00
2019-05-15T06:05:50.220Z,12.00
2019-05-15T06:08:20.329Z,12.00
2019-05-15T06:10:50.686Z,12.00
2019-05-15T06:13:20.837Z,12.00
2019-05-15T06:15:51.140Z,12.00
2019-05-15T06:18:22.462Z,12.00
2019-05-15T06:20:52.496Z,12.00
2019-05-15T06:23:25.054Z,12.00
2019-05-15T06:25:54.381Z,12.00
2019-05-15T06:28:24.435Z,12.00
2019-05-15T06:30:54.560Z,12.00
2019-05-15T06:33:24.578Z,12.00
2019-05-15T06:35:54.658Z,12.00
2019-05-15T06:38:24.680Z,12.00
2019-05-15T06:40:54.724Z,12.00
2019-05-15T06:43:24.780Z,12.00
2019-05-15T06:45:54.836Z,12.00
2019-05-15T06:48:25.014Z,12.00
2019-05-15T06:50:55.062Z,12.00
2019-05-15T06:53:25.171Z,12.00
2019-05-15T06:55:55.232Z,12.00
2019-05-15T06:58:25.650Z,12.00
2019-05-15T07:00:58.996Z,12.00
2019-05-15T07:03:29.376Z,12.00
2019-05-15T07:06:00.126Z,12.00
2019-05-15T07:08:30.417Z,12.00
2019-05-15T07:11:00.496Z,12.00
2019-05-15T07:13:30.661Z,12.00
2019-05-15T07:16:00.728Z,12.00
2019-05-15T07:18:30.821Z,12.00
2019-05-15T07:21:01.246Z,12.00
2019-05-15T07:23:31.358Z,12.00
2019-05-15T07:26:01.553Z,12.00
2019-05-15T07:28:31.615Z,12.00
2019-05-15T07:31:01.759Z,12.00
2019-05-15T07:33:39.671Z,12.00
2019-05-15T07:36:03.735Z,12.00
2019-05-15T07:38:34.131Z,12.00
2019-05-15T07:41:04.620Z,11.90
2019-05-15T07:43:35.345Z,11.90
2019-05-15T07:46:08.102Z,11.90
2019-05-15T07:48:38.403Z,11.90
2019-05-15T07:51:11.706Z,11.90
2019-05-15T07:53:41.095Z,11.90
2019-05-15T07:56:12.360Z,11.90
2019-05-15T07:58:42.933Z,11.90
2019-05-15T08:01:14.648Z,11.90
2019-05-15T08:03:56.697Z,11.90
2019-05-15T08:06:18.039Z,11.90
2019-05-15T08:08:48.767Z,11.90
2019-05-15T08:11:24.065Z,11.90
2019-05-15T08:13:50.899Z,12.00
2019-05-15T08:16:20.961Z,12.00
2019-05-15T08:18:51.118Z,12.00
2019-05-15T08:21:21.220Z,12.00
2019-05-15T08:23:51.315Z,12.00
2019-05-15T08:26:22.477Z,12.00
2019-05-15T08:28:52.601Z,12.00
2019-05-15T08:31:22.672Z,12.00
2019-05-15T08:33:52.925Z,12.00
2019-05-15T08:36:22.971Z,12.00
2019-05-15T08:38:53.052Z,12.00
2019-05-15T08:41:23.485Z,12.10
2019-05-15T08:43:53.550Z,12.10
2019-05-15T08:46:23.655Z,12.10
2019-05-15T08:48:53.725Z,12.10
2019-05-15T08:51:23.763Z,12.10
2019-05-15T08:53:53.818Z,12.10
2019-05-15T08:56:23.837Z,12.10
2019-05-15T08:58:53.907Z,12.10
2019-05-15T09:01:24.926Z,12.10
2019-05-15T09:03:55.074Z,12.10
2019-05-15T09:06:28.925Z,12.20
2019-05-15T09:08:58.521Z,12.10
2019-05-15T09:11:28.779Z,12.20
2019-05-15T09:13:59.576Z,12.20
2019-05-15T09:16:29.852Z,12.20
2019-05-15T09:19:00.725Z,12.30
2019-05-15T09:21:30.782Z,12.30
2019-05-15T09:24:01.266Z,12.30
2019-05-15T09:26:31.315Z,12.30
2019-05-15T09:29:01.527Z,12.40
2019-05-15T09:31:31.796Z,12.40
2019-05-15T09:34:01.909Z,12.40
2019-05-15T09:36:31.949Z,12.40
2019-05-15T09:39:02.225Z,12.40
2019-05-15T09:41:33.587Z,12.40
2019-05-15T09:44:03.765Z,12.50
2019-05-15T09:46:33.947Z,12.50
2019-05-15T09:49:04.279Z,12.50
2019-05-15T09:51:34.692Z,12.50
2019-05-15T09:54:04.815Z,12.50
2019-05-15T09:56:34.859Z,12.50
2019-05-15T09:59:05.263Z,12.50
2019-05-15T10:01:35.569Z,12.60
2019-05-15T10:04:08.351Z,12.60
2019-05-15T10:06:39.141Z,12.60
2019-05-15T10:09:13.724Z,12.70
2019-05-15T10:11:43.778Z,12.70
2019-05-15T10:14:15.080Z,12.70
2019-05-15T10:16:48.102Z,12.70
2019-05-15T10:19:18.522Z,12.70
2019-05-15T10:21:52.887Z,12.70
2019-05-15T10:24:21.237Z,12.70
2019-05-15T10:26:51.361Z,12.70
2019-05-15T10:29:22.685Z,12.80
2019-05-15T10:31:54.198Z,12.70
2019-05-15T10:34:24.679Z,12.80
2019-05-15T10:36:54.739Z,12.80
2019-05-15T10:39:24.789Z,12.80
2019-05-15T10:41:54.827Z,12.80
2019-05-15T10:44:24.967Z,12.90
2019-05-15T10:46:55.089Z,12.90
2019-05-15T10:49:25.557Z,12.90
2019-05-15T10:51:55.589Z,12.90
2019-05-15T10:54:25.636Z,12.90
2019-05-15T10:57:00.268Z,12.90
2019-05-15T10:59:27.917Z,12.90
2019-05-15T11:01:59.042Z,12.90
2019-05-15T11:04:30.571Z,13.00
2019-05-15T11:07:00.635Z,13.00
2019-05-15T11:09:30.968Z,13.00
2019-05-15T11:12:01.101Z,13.00
2019-05-15T11:14:31.251Z,13.00
2019-05-15T11:17:02.190Z,13.10
2019-05-15T11:19:35.959Z,13.10
2019-05-15T11:22:04.360Z,13.10
2019-05-15T11:24:34.495Z,13.10
2019-05-15T11:27:04.906Z,13.10
2019-05-15T11:29:35.063Z,13.20
2019-05-15T11:32:05.102Z,13.20
2019-05-15T11:34:35.230Z,13.20
2019-05-15T11:37:05.272Z,13.20
2019-05-15T11:39:35.382Z,13.20
2019-05-15T11:42:08.718Z,13.20
2019-05-15T11:44:38.872Z,13.20
2019-05-15T11:47:09.010Z,13.20
2019-05-15T11:49:39.162Z,13.20
2019-05-15T11:52:09.310Z,13.30
2019-05-15T11:54:39.379Z,13.30
2019-05-15T11:57:09.529Z,13.30
2019-05-15T11:59:45.076Z,13.30
2019-05-15T12:02:11.611Z,13.30
2019-05-15T12:04:41.645Z,13.30
2019-05-15T12:07:12.371Z,13.30
2019-05-15T12:09:42.774Z,13.30
2019-05-15T12:12:12.933Z,13.30
2019-05-15T12:14:43.034Z,13.30
2019-05-15T12:17:15.563Z,13.30
2019-05-15T12:19:54.801Z,13.30
2019-05-15T12:22:16.744Z,13.30
2019-05-15T12:24:49.934Z,13.30
2019-05-15T12:27:19.778Z,13.30
2019-05-15T12:29:49.847Z,13.30
2019-05-15T12:32:30.096Z,13.30
2019-05-15T12:34:51.627Z,13.30
2019-05-15T12:37:21.654Z,13.30
2019-05-15T13:00:10.450Z,13.40
2019-05-15T13:02:39.976Z,13.40
2019-05-15T13:05:11.873Z,13.40
2019-05-15T13:07:41.957Z,13.40
2019-05-15T13:10:12.947Z,13.40
2019-05-15T13:12:59.307Z,13.40
2019-05-15T13:15:15.610Z,13.40
2019-05-15T13:17:45.884Z,13.40
2019-05-15T13:20:19.857Z,13.40
2019-05-15T13:25:22.942Z,13.50
2019-05-15T13:27:51.808Z,13.40
2019-05-15T13:30:22.346Z,13.40
2019-05-15T13:32:52.375Z,13.40
2019-05-15T13:35:22.751Z,13.50
2019-05-15T13:37:52.821Z,13.50
2019-05-15T13:40:35.020Z,13.50
2019-05-15T13:42:54.699Z,13.50
2019-05-15T13:45:24.894Z,13.50
2019-05-15T13:47:54.973Z,13.50
2019-05-15T13:50:25.382Z,13.50
2019-05-15T13:52:55.678Z,13.50
2019-05-15T13:55:28.182Z,13.50
2019-05-15T13:57:58.011Z,13.50
2019-05-15T14:00:28.928Z,13.50
2019-05-15T14:02:59.128Z,13.50
2019-05-15T14:05:31.425Z,13.50
2019-05-15T14:08:01.479Z,13.50
2019-05-15T14:10:32.687Z,13.50
2019-05-15T14:13:02.734Z,13.50
2019-05-15T14:15:32.855Z,13.50
2019-05-15T14:18:02.972Z,13.50
2019-05-15T14:20:33.118Z,13.50
2019-05-15T14:23:03.623Z,13.50
2019-05-15T14:25:33.780Z,13.50
2019-05-15T14:28:04.623Z,13.50
2019-05-15T14:30:34.817Z,13.50
2019-05-15T14:33:04.955Z,13.60
2019-05-15T14:35:35.012Z,13.60
2019-05-15T14:38:06.847Z,13.60
2019-05-15T14:40:36.887Z,13.60
2019-05-15T14:43:08.958Z,13.60
2019-05-15T14:45:39.087Z,13.60
2019-05-15T14:48:13.356Z,13.60
2019-05-15T14:50:43.460Z,13.60
2019-05-15T14:53:13.618Z,13.60
2019-05-15T14:55:44.287Z,13.60
2019-05-15T14:58:14.958Z,13.60
2019-05-15T15:00:45.165Z,13.60
2019-05-15T15:03:15.601Z,13.60
2019-05-15T15:05:45.716Z,13.60
2019-05-15T15:08:21.610Z,13.60
2019-05-15T15:10:47.543Z,13.60
2019-05-15T15:13:18.326Z,13.60
2019-05-15T15:19:24.221Z,13.60
2019-05-15T15:21:54.349Z,13.60
2019-05-15T15:24:24.402Z,13.50
2019-05-15T15:26:54.841Z,13.60
2019-05-15T15:29:25.049Z,13.60
2019-05-15T15:31:55.550Z,13.60
2019-05-15T15:34:28.140Z,13.60
2019-05-15T15:36:57.998Z,13.60
2019-05-15T15:39:28.584Z,13.60
2019-05-15T15:41:59.781Z,13.60
2019-05-15T15:44:30.019Z,13.60
2019-05-15T15:47:00.120Z,13.60
2019-05-15T15:49:30.361Z,13.60
2019-05-15T15:52:00.472Z,13.60
2019-05-15T15:54:30.675Z,13.60
2019-05-15T15:57:00.689Z,13.60
2019-05-15T15:59:31.223Z,13.60
2019-05-15T16:02:01.239Z,13.60
2019-05-15T16:04:31.518Z,13.60
2019-05-15T16:07:01.615Z,13.60
2019-05-15T16:09:31.988Z,13.60
2019-05-15T16:12:02.089Z,13.60
2019-05-15T16:14:32.526Z,13.60
2019-05-15T16:17:02.573Z,13.60
2019-05-15T16:19:32.626Z,13.60
2019-05-15T16:22:03.941Z,13.60
2019-05-15T16:24:34.060Z,13.60
2019-05-15T16:27:04.154Z,13.60
2019-05-15T16:29:34.350Z,13.60
2019-05-15T16:32:04.816Z,13.60
2019-05-15T16:34:34.921Z,13.60
2019-05-15T16:37:05.443Z,13.60
2019-05-15T16:39:35.504Z,13.70
2019-05-15T16:42:06.215Z,13.70
2019-05-15T16:44:38.475Z,13.70
2019-05-15T16:47:08.569Z,13.70
2019-05-15T16:49:39.326Z,13.70
2019-05-15T16:52:09.641Z,13.70
2019-05-15T16:54:40.050Z,13.70
2019-05-15T16:57:10.393Z,13.70
2019-05-15T16:59:40.667Z,13.70
2019-05-15T17:02:10.794Z,13.70
2019-05-15T17:04:40.853Z,13.70
2019-05-15T17:07:10.947Z,13.70
2019-05-15T17:09:41.374Z,13.70
2019-05-15T17:12:11.814Z,13.70
2019-05-15T17:14:41.892Z,13.70
2019-05-15T17:17:12.248Z,13.70
2019-05-15T17:19:42.337Z,13.70
2019-05-15T17:22:12.918Z,13.70
2019-05-15T17:24:43.316Z,13.60
2019-05-15T17:27:13.355Z,13.70
2019-05-15T17:29:43.589Z,13.70
2019-05-15T17:32:14.077Z,13.70
2019-05-15T17:34:44.201Z,13.70
2019-05-15T17:37:14.403Z,13.70
2019-05-15T17:39:44.718Z,13.70
2019-05-15T17:42:14.762Z,13.70
2019-05-15T17:44:45.277Z,13.60
2019-05-15T17:47:15.321Z,13.60
2019-05-15T17:49:48.037Z,13.60
2019-05-15T17:52:18.355Z,13.60
2019-05-15T17:54:50.288Z,13.60
2019-05-15T17:57:20.397Z,13.60
2019-05-15T17:59:50.486Z,13.60
2019-05-15T18:02:20.851Z,13.60
2019-05-15T18:04:51.396Z,13.60
2019-05-15T18:07:21.409Z,13.60
2019-05-15T18:09:54.513Z,13.60
2019-05-15T18:12:24.535Z,13.60
2019-05-15T18:14:54.969Z,13.60
2019-05-15T18:17:25.303Z,13.60
2019-05-15T18:19:57.969Z,13.60
2019-05-15T18:22:27.576Z,13.60
2019-05-15T18:24:58.240Z,13.60
2019-05-15T18:27:28.700Z,13.60
2019-05-15T18:29:58.777Z,13.60
2019-05-15T18:32:28.991Z,13.60
2019-05-15T18:34:59.372Z,13.60
2019-05-15T18:37:29.878Z,13.60
2019-05-15T18:40:05.372Z,13.60
2019-05-15T18:42:33.377Z,13.60
2019-05-15T18:45:03.697Z,13.60
2019-05-15T18:47:35.031Z,13.60
2019-05-15T18:50:09.685Z,13.60
2019-05-15T18:52:38.280Z,13.60
2019-05-15T18:55:08.808Z,13.50
2019-05-15T18:57:39.886Z,13.50
2019-05-15T19:00:13.011Z,13.50
2019-05-15T19:02:43.136Z,13.50
2019-05-15T19:05:14.438Z,13.50
2019-05-15T19:07:44.610Z,13.50
2019-05-15T19:10:19.923Z,13.50
2019-05-15T19:12:50.461Z,13.50
2019-05-15T19:15:21.440Z,13.50
2019-05-15T19:17:52.715Z,13.50
2019-05-15T19:20:23.059Z,13.50
2019-05-15T19:22:53.149Z,13.50
2019-05-15T19:25:24.489Z,13.50
2019-05-15T19:27:54.616Z,13.50
2019-05-15T19:30:25.084Z,13.50
2019-05-15T19:32:55.454Z,13.50
2019-05-15T19:35:27.868Z,13.50
2019-05-15T19:37:58.758Z,13.50
2019-05-15T19:40:29.257Z,13.50
2019-05-15T19:43:03.632Z,13.50
2019-05-15T19:45:32.661Z,13.50
2019-05-15T19:48:03.198Z,13.50
2019-05-15T19:50:33.323Z,13.50
2019-05-15T19:53:04.085Z,13.50
2019-05-15T19:55:34.603Z,13.50
2019-05-15T19:58:08.680Z,13.40
2019-05-15T20:00:38.977Z,13.50
2019-05-15T20:03:09.873Z,13.40
2019-05-15T20:05:39.893Z,13.40
2019-05-15T20:08:10.154Z,13.40
2019-05-15T20:10:40.422Z,13.40
2019-05-15T20:13:10.524Z,13.40
2019-05-15T20:15:40.883Z,13.40
2019-05-15T20:18:11.815Z,13.40
2019-05-15T20:20:42.251Z,13.40
2019-05-15T20:23:12.366Z,13.40
2019-05-15T20:25:42.447Z,13.40
2019-05-15T20:28:12.857Z,13.40
2019-05-15T20:30:43.264Z,13.40
2019-05-15T20:33:15.378Z,13.40
2019-05-15T20:35:47.828Z,13.40
2019-05-15T20:38:17.570Z,13.40
2019-05-15T20:40:48.720Z,13.40
2019-05-15T20:43:19.328Z,13.40
2019-05-15T20:45:49.395Z,13.40
2019-05-15T20:48:20.617Z,13.40
2019-05-15T20:50:51.071Z,13.40
2019-05-15T20:53:21.383Z,13.30
2019-05-15T20:55:51.589Z,13.30
2019-05-15T20:58:22.119Z,13.30
2019-05-15T21:00:52.551Z,13.30
2019-05-15T21:03:23.264Z,13.30
2019-05-15T21:05:53.420Z,13.30
2019-05-15T21:08:23.487Z,13.30
2019-05-15T21:10:53.698Z,13.30
2019-05-15T21:13:23.837Z,13.30
2019-05-15T21:15:54.299Z,13.30
2019-05-15T21:18:24.908Z,13.30
2019-05-15T21:20:54.932Z,13.30
2019-05-15T21:23:25.011Z,13.30
2019-05-15T21:25:55.468Z,13.30
2019-05-15T21:28:27.768Z,13.30
2019-05-15T21:30:58.132Z,13.30
2019-05-15T21:33:28.591Z,13.30
2019-05-15T21:35:58.637Z,13.30
2019-05-15T21:38:28.709Z,13.30
2019-05-15T21:40:59.180Z,13.20
2019-05-15T21:43:29.338Z,13.20
2019-05-15T21:45:59.848Z,13.20
2019-05-15T21:48:29.927Z,13.20
2019-05-15T21:50:59.989Z,13.20
2019-05-15T21:53:30.047Z,13.10
2019-05-15T21:56:00.251Z,13.20
2019-05-15T21:58:30.693Z,13.20
2019-05-15T22:01:01.151Z,13.20
2019-05-15T22:03:32.729Z,13.20
2019-05-15T22:06:03.626Z,13.20
2019-05-15T22:08:39.784Z,13.20
2019-05-15T22:11:10.229Z,13.20
2019-05-15T22:13:47.914Z,13.10
2019-05-15T22:16:19.471Z,13.10
2019-05-15T22:18:49.571Z,13.10
2019-05-15T22:21:19.623Z,13.10
2019-05-15T22:23:49.852Z,13.10
2019-05-15T22:26:21.579Z,13.10
2019-05-15T22:28:53.318Z,13.10
2019-05-15T22:31:23.378Z,13.10
2019-05-15T22:33:53.796Z,13.10
2019-05-15T22:36:23.877Z,13.10
2019-05-15T22:38:54.311Z,13.10
2019-05-15T22:41:24.343Z,13.10
2019-05-15T22:43:54.502Z,13.10
2019-05-15T22:46:24.535Z,13.00
2019-05-15T22:48:54.836Z,13.10
2019-05-15T22:51:28.687Z,13.10
2019-05-15T22:53:58.149Z,13.00
2019-05-15T22:56:29.722Z,13.10
2019-05-15T22:58:59.878Z,13.00
2019-05-15T23:01:29.978Z,13.00
2019-05-15T23:04:00.831Z,13.00
2019-05-15T23:06:30.848Z,13.00
2019-05-15T23:09:01.003Z,13.00
2019-05-15T23:11:33.211Z,13.00
2019-05-15T23:14:03.592Z,13.00
2019-05-15T23:16:33.631Z,13.00
2019-05-15T23:19:03.966Z,13.00
2019-05-15T23:21:36.761Z,13.00
2019-05-15T23:24:07.992Z,13.00
2019-05-15T23:26:38.770Z,13.00
2019-05-15T23:29:09.203Z,13.00
2019-05-15T23:31:39.404Z,12.90
2019-05-15T23:34:09.444Z,12.90
2019-05-15T23:36:39.514Z,12.90
2019-05-15T23:39:09.587Z,12.90
2019-05-15T23:41:39.602Z,12.90
2019-05-15T23:44:09.720Z,12.90
2019-05-15T23:46:39.859Z,12.90
2019-05-15T23:49:10.238Z,12.90
2019-05-15T23:51:40.337Z,12.90
2019-05-15T23:54:10.344Z,12.90
2019-05-15T23:56:40.406Z,12.90
2019-05-15T23:59:10.450Z,12.90
